Time;durP1;ratioP1;P1;durP2;ratioP2;P2;SDS_P1;SDS_P2;PMS_P1;PMS_P2;Temp;Humidity;BMP_temperature;BMP_pressure;BME280_temperature;BME280_humidity;BME280_pressure;Samples;Min_cycle;Max_cycle;Signal;HPM_P1;HPM_P2
2022/06/11 00:00:45;;;;;;;0.10;0.10;;;23.00;61.80;;;;;;5065916;28;20069;-18
2022/06/11 00:03:12;;;;;;;0.30;0.28;;;23.00;61.90;;;;;;5077880;28;20075;-18
2022/06/11 00:05:37;;;;;;;0.30;0.28;;;23.00;61.70;;;;;;5082362;28;20398;-19
2022/06/11 00:08:04;;;;;;;1.25;0.25;;;23.00;61.80;;;;;;5074232;28;20417;-21
2022/06/11 00:10:29;;;;;;;0.20;0.20;;;23.00;61.80;;;;;;5085887;28;20045;-19
2022/06/11 00:12:55;;;;;;;0.10;0.10;;;23.00;61.70;;;;;;5074439;28;20102;-18
2022/06/11 00:15:20;;;;;;;0.63;0.20;;;23.00;61.80;;;;;;5086553;28;20033;-22
2022/06/11 00:17:46;;;;;;;0.40;0.30;;;23.00;61.80;;;;;;5068744;28;20079;-19
2022/06/11 00:20:12;;;;;;;0.15;0.15;;;23.00;61.80;;;;;;5067130;28;20037;-20
2022/06/11 00:22:38;;;;;;;0.15;0.15;;;23.00;61.70;;;;;;5078267;28;20044;-18
2022/06/11 00:25:04;;;;;;;0.13;0.10;;;23.00;61.70;;;;;;5076348;28;20076;-19
2022/06/11 00:27:30;;;;;;;0.40;0.28;;;23.00;61.80;;;;;;5079779;28;20040;-18
2022/06/11 00:29:55;;;;;;;0.28;0.28;;;23.00;61.70;;;;;;5095429;28;20047;-18
2022/06/11 00:32:21;;;;;;;0.35;0.25;;;23.00;61.80;;;;;;5085710;28;20060;-19
2022/06/11 00:34:46;;;;;;;0.20;0.20;;;23.00;61.70;;;;;;5074637;28;20043;-19
2022/06/11 00:37:13;;;;;;;0.22;0.20;;;23.00;61.80;;;;;;5080053;28;20047;-18
2022/06/11 00:39:39;;;;;;;0.25;0.20;;;23.00;61.80;;;;;;5079078;28;20070;-18
2022/06/11 00:42:12;;;;;;;0.40;0.30;;;23.00;61.70;;;;;;5075051;28;20075;-18
2022/06/11 00:44:37;;;;;;;0.30;0.20;;;23.00;61.70;;;;;;5036647;28;20061;-20
2022/06/11 00:47:10;;;;;;;0.20;0.20;;;23.10;61.50;;;;;;5061710;28;20078;-18
2022/06/11 00:49:44;;;;;;;0.35;0.35;;;23.00;61.70;;;;;;5055854;28;20075;-19
2022/06/11 00:52:32;;;;;;;0.28;0.20;;;23.00;61.70;;;;;;5051267;28;20048;-18
2022/06/11 00:54:58;;;;;;;0.25;0.25;;;23.00;61.60;;;;;;5057241;28;20048;-18
2022/06/11 00:57:24;;;;;;;0.47;0.30;;;22.90;61.80;;;;;;5079728;28;20513;-19
2022/06/11 00:59:52;;;;;;;0.30;0.15;;;23.00;61.70;;;;;;5078993;28;20088;-19
2022/06/11 01:02:17;;;;;;;0.30;0.20;;;23.00;61.70;;;;;;5062481;28;20083;-19
2022/06/11 01:04:49;;;;;;;0.30;0.20;;;22.90;61.90;;;;;;5091652;28;20029;-19
2022/06/11 01:07:41;;;;;;;0.22;0.20;;;23.00;61.50;;;;;;5087102;28;20048;-18
2022/06/11 01:10:21;;;;;;;1.38;0.20;;;23.00;61.70;;;;;;5077832;28;20136;-19
2022/06/11 01:13:05;;;;;;;0.55;0.25;;;23.00;61.60;;;;;;5068470;28;20071;-19
2022/06/11 01:15:42;;;;;;;0.50;0.30;;;23.00;61.70;;;;;;5070636;28;20163;-20
2022/06/11 01:18:27;;;;;;;0.50;0.38;;;23.00;61.60;;;;;;5044924;28;20127;-19
2022/06/11 01:21:15;;;;;;;0.30;0.25;;;23.00;61.50;;;;;;5090066;28;20040;-18
2022/06/11 01:24:16;;;;;;;0.32;0.20;;;23.00;61.60;;;;;;5075894;28;20098;-18
2022/06/11 01:27:06;;;;;;;0.30;0.30;;;23.00;61.40;;;;;;4976334;28;20049;-19
2022/06/11 01:29:46;;;;;;;0.20;0.20;;;23.00;61.50;;;;;;5066406;28;20102;-19
2022/06/11 01:32:21;;;;;;;0.57;0.38;;;23.00;61.50;;;;;;5064396;28;20044;-18
2022/06/11 01:34:58;;;;;;;0.28;0.20;;;23.00;61.70;;;;;;5089637;28;20032;-20
2022/06/11 01:37:36;;;;;;;0.43;0.30;;;23.00;61.60;;;;;;5065617;28;20131;-18
2022/06/11 01:40:06;;;;;;;1.05;0.20;;;22.90;61.50;;;;;;5054102;28;20043;-18
2022/06/11 01:42:35;;;;;;;0.40;0.20;;;22.90;61.60;;;;;;5052401;28;20417;-21
2022/06/11 01:45:09;;;;;;;0.30;0.30;;;22.90;61.60;;;;;;5067257;28;20048;-19
2022/06/11 01:47:35;;;;;;;0.20;0.20;;;23.00;61.50;;;;;;5090767;28;20044;-18
2022/06/11 01:50:01;;;;;;;0.40;0.22;;;22.90;61.50;;;;;;5066741;28;20039;-20
2022/06/11 01:52:54;;;;;;;0.63;0.40;;;23.00;61.60;;;;;;5087638;28;20032;-19
2022/06/11 01:55:33;;;;;;;0.30;0.20;;;22.90;61.60;;;;;;5074409;28;20044;-20
2022/06/11 01:58:30;;;;;;;0.52;0.30;;;22.90;61.60;;;;;;5073561;28;20594;-20
2022/06/11 02:01:23;;;;;;;0.40;0.30;;;22.90;61.60;;;;;;5084756;28;20044;-19
2022/06/11 02:04:13;;;;;;;0.47;0.30;;;22.90;61.80;;;;;;5057018;28;20137;-18
2022/06/11 02:06:55;;;;;;;0.20;0.20;;;22.90;61.80;;;;;;5060864;28;20040;-18
2022/06/11 02:09:32;;;;;;;0.30;0.20;;;22.90;61.70;;;;;;5058796;28;20063;-19
2022/06/11 02:12:04;;;;;;;0.63;0.20;;;22.90;61.60;;;;;;5044970;28;20049;-19
2022/06/11 02:14:36;;;;;;;0.50;0.32;;;23.00;61.50;;;;;;5056190;28;20108;-18
2022/06/11 02:17:24;;;;;;;0.22;0.22;;;22.90;61.70;;;;;;5044046;28;20123;-18
2022/06/11 02:20:24;;;;;;;0.57;0.40;;;22.90;61.60;;;;;;5088819;28;20043;-19
2022/06/11 02:23:14;;;;;;;0.40;0.40;;;22.90;61.60;;;;;;5013531;28;20055;-20
2022/06/11 02:25:45;;;;;;;0.43;0.32;;;22.90;61.40;;;;;;5024160;28;20033;-23
2022/06/11 02:28:14;;;;;;;0.40;0.30;;;23.00;61.50;;;;;;5046539;28;20066;-18
2022/06/11 02:30:40;;;;;;;0.40;0.20;;;22.90;61.50;;;;;;5079365;28;20044;-18
2022/06/11 02:33:09;;;;;;;0.40;0.20;;;22.90;61.50;;;;;;5073680;28;20075;-17
2022/06/11 02:35:50;;;;;;;0.28;0.28;;;22.90;61.50;;;;;;5049792;28;20066;-20
2022/06/11 02:38:18;;;;;;;0.70;0.60;;;22.90;61.50;;;;;;5093583;28;20059;-19
2022/06/11 02:40:47;;;;;;;0.22;0.20;;;22.90;61.50;;;;;;5084391;28;20032;-19
2022/06/11 02:43:12;;;;;;;0.50;0.30;;;22.90;61.50;;;;;;5043910;28;20156;-18
2022/06/11 02:45:38;;;;;;;0.35;0.35;;;22.90;61.50;;;;;;5078956;28;20076;-19
2022/06/11 02:48:04;;;;;;;0.30;0.28;;;22.90;61.60;;;;;;5079506;28;20130;-21
2022/06/11 02:50:31;;;;;;;0.30;0.30;;;22.90;61.60;;;;;;5085945;28;20044;-19
2022/06/11 02:52:57;;;;;;;0.20;0.20;;;22.90;61.70;;;;;;5096046;28;20454;-18
2022/06/11 02:55:23;;;;;;;0.45;0.22;;;22.80;61.70;;;;;;5083502;28;20401;-18
2022/06/11 02:57:48;;;;;;;0.20;0.20;;;22.90;61.60;;;;;;5085787;28;20048;-18
2022/06/11 03:00:16;;;;;;;0.38;0.38;;;22.90;61.70;;;;;;5096744;28;20104;-18
2022/06/11 03:02:45;;;;;;;0.25;0.25;;;22.80;61.70;;;;;;5079294;28;20043;-18
2022/06/11 03:05:11;;;;;;;0.20;0.20;;;22.80;61.80;;;;;;5079241;28;20139;-18
2022/06/11 03:07:37;;;;;;;0.43;0.28;;;22.80;61.80;;;;;;5085656;28;20071;-19
2022/06/11 03:10:03;;;;;;;0.20;0.20;;;22.80;61.70;;;;;;5092871;28;20047;-20
2022/06/11 03:12:28;;;;;;;0.68;0.50;;;22.80;61.60;;;;;;5084465;28;20497;-18
2022/06/11 03:14:54;;;;;;;0.30;0.30;;;22.90;61.60;;;;;;5084264;28;20398;-18
2022/06/11 03:17:20;;;;;;;0.30;0.30;;;22.80;62.60;;;;;;5092431;28;20040;-19
2022/06/11 03:19:46;;;;;;;0.43;0.32;;;22.80;61.80;;;;;;5092548;28;20139;-18
2022/06/11 03:22:12;;;;;;;0.30;0.20;;;22.80;61.90;;;;;;5083900;28;20059;-20
2022/06/11 03:24:37;;;;;;;0.57;0.50;;;22.80;61.80;;;;;;5095017;28;20050;-21
2022/06/11 03:27:03;;;;;;;0.40;0.30;;;22.90;61.50;;;;;;5082631;28;20043;-18
2022/06/11 03:29:29;;;;;;;0.40;0.30;;;22.80;61.50;;;;;;5079047;28;20587;-21
2022/06/11 03:31:54;;;;;;;0.70;0.55;;;22.80;61.60;;;;;;5086266;28;20469;-18
2022/06/11 03:34:20;;;;;;;0.22;0.20;;;22.80;61.60;;;;;;5078727;28;20040;-18
2022/06/11 03:36:47;;;;;;;0.45;0.40;;;22.80;61.50;;;;;;5073541;28;20428;-18
2022/06/11 03:39:12;;;;;;;0.40;0.30;;;22.80;61.40;;;;;;5076283;28;20070;-18
2022/06/11 03:41:38;;;;;;;0.47;0.40;;;22.80;61.50;;;;;;5073800;28;20029;-19
2022/06/11 03:44:04;;;;;;;0.88;0.43;;;22.90;61.50;;;;;;5078251;28;20078;-19
2022/06/11 03:46:30;;;;;;;0.30;0.25;;;22.80;61.50;;;;;;5074742;28;20123;-20
2022/06/11 03:48:56;;;;;;;0.32;0.32;;;22.80;61.60;;;;;;5072208;28;20044;-18
2022/06/11 03:51:22;;;;;;;0.38;0.20;;;22.80;61.40;;;;;;5074007;28;20033;-18
2022/06/11 03:53:48;;;;;;;0.20;0.20;;;22.80;61.40;;;;;;5074491;28;20044;-18
2022/06/11 03:56:14;;;;;;;0.50;0.30;;;22.80;61.40;;;;;;5066807;28;20043;-18
2022/06/11 03:58:39;;;;;;;0.70;0.30;;;22.80;61.50;;;;;;5075020;28;20052;-20
2022/06/11 04:01:15;;;;;;;0.40;0.30;;;22.80;61.50;;;;;;5074016;28;20040;-18
2022/06/11 04:03:48;;;;;;;0.20;0.20;;;22.80;62.20;;;;;;5067434;28;20103;-18
2022/06/11 04:06:14;;;;;;;0.30;0.30;;;22.80;61.30;;;;;;5075310;28;20037;-21
2022/06/11 04:08:40;;;;;;;0.10;0.10;;;22.80;61.40;;;;;;5074508;28;20379;-21
2022/06/11 04:11:07;;;;;;;0.40;0.20;;;22.80;61.50;;;;;;5073968;28;20114;-19
2022/06/11 04:13:34;;;;;;;0.30;0.30;;;22.80;61.60;;;;;;5067780;28;20041;-18
2022/06/11 04:15:59;;;;;;;0.80;0.32;;;22.80;61.60;;;;;;5060553;28;20048;-20
2022/06/11 04:18:43;;;;;;;0.32;0.20;;;22.70;61.70;;;;;;5040059;28;20051;-18
2022/06/11 04:21:10;;;;;;;0.25;0.20;;;22.80;61.70;;;;;;5055978;28;20417;-19
2022/06/11 04:23:36;;;;;;;0.30;0.30;;;22.70;61.50;;;;;;5081940;28;20041;-19
2022/06/11 04:26:04;;;;;;;0.40;0.30;;;22.70;61.70;;;;;;5081302;28;20078;-20
2022/06/11 04:28:30;;;;;;;0.20;0.20;;;22.70;61.60;;;;;;5073912;28;20065;-19
2022/06/11 04:30:57;;;;;;;0.45;0.30;;;22.80;61.60;;;;;;5075600;28;20036;-18
2022/06/11 04:33:22;;;;;;;0.45;0.20;;;22.80;61.50;;;;;;5075444;28;20044;-19
2022/06/11 04:35:48;;;;;;;0.10;0.10;;;22.70;61.60;;;;;;5077530;28;20031;-18
2022/06/11 04:38:14;;;;;;;0.22;0.22;;;22.70;61.60;;;;;;5079239;28;20435;-18
2022/06/11 04:40:40;;;;;;;0.40;0.40;;;22.70;61.60;;;;;;5088836;28;20078;-20
2022/06/11 04:43:05;;;;;;;0.30;0.20;;;22.80;61.50;;;;;;5082803;28;20086;-19
2022/06/11 04:45:31;;;;;;;0.30;0.30;;;22.70;61.50;;;;;;5080342;28;20082;-19
2022/06/11 04:47:56;;;;;;;0.30;0.30;;;22.70;61.60;;;;;;5080218;28;20039;-18
2022/06/11 04:50:22;;;;;;;1.25;0.35;;;22.80;61.50;;;;;;5078812;28;20024;-18
2022/06/11 04:52:48;;;;;;;0.50;0.30;;;22.70;61.50;;;;;;5088175;28;20485;-23
2022/06/11 04:55:14;;;;;;;0.20;0.20;;;22.70;61.50;;;;;;5084538;28;20016;-20
2022/06/11 04:57:40;;;;;;;0.30;0.30;;;22.80;61.60;;;;;;5082720;28;20024;-18
2022/06/11 05:00:07;;;;;;;0.55;0.40;;;22.70;61.60;;;;;;5078494;28;20009;-19
2022/06/11 05:02:32;;;;;;;0.30;0.30;;;22.70;61.50;;;;;;5084078;28;20028;-19
2022/06/11 05:04:58;;;;;;;0.38;0.30;;;22.70;61.50;;;;;;5099703;28;20026;-18
2022/06/11 05:07:24;;;;;;;0.30;0.20;;;22.80;61.40;;;;;;5090234;28;20036;-20
2022/06/11 05:09:49;;;;;;;0.40;0.38;;;22.70;61.50;;;;;;5071734;28;20044;-18
2022/06/11 05:12:15;;;;;;;0.52;0.30;;;22.70;61.50;;;;;;5078304;28;20028;-20
2022/06/11 05:14:41;;;;;;;0.30;0.30;;;22.70;61.40;;;;;;5087543;28;20036;-18
2022/06/11 05:17:06;;;;;;;0.32;0.32;;;22.70;61.40;;;;;;5078768;28;20112;-18
2022/06/11 05:19:32;;;;;;;0.30;0.20;;;22.70;62.40;;;;;;5084916;28;20044;-18
2022/06/11 05:21:57;;;;;;;0.30;0.30;;;22.70;61.50;;;;;;5081071;28;20045;-18
2022/06/11 05:24:23;;;;;;;0.28;0.28;;;22.70;61.60;;;;;;5080841;28;20044;-20
2022/06/11 05:27:11;;;;;;;0.25;0.20;;;22.70;61.50;;;;;;5077996;28;20040;-18
2022/06/11 05:29:54;;;;;;;0.30;0.30;;;22.70;61.60;;;;;;5053591;28;20408;-21
2022/06/11 05:32:21;;;;;;;0.32;0.20;;;22.70;61.40;;;;;;5046424;28;20040;-19
2022/06/11 05:34:47;;;;;;;0.20;0.15;;;22.70;61.30;;;;;;5087177;28;20040;-19
2022/06/11 05:37:13;;;;;;;0.30;0.30;;;22.70;61.40;;;;;;5094046;28;20040;-19
2022/06/11 05:39:39;;;;;;;0.50;0.30;;;22.70;61.40;;;;;;5088523;28;20124;-20
2022/06/11 05:42:05;;;;;;;0.20;0.20;;;22.70;61.40;;;;;;5077867;28;20044;-19
2022/06/11 05:44:31;;;;;;;0.30;0.30;;;22.70;61.20;;;;;;5091281;28;20071;-20
2022/06/11 05:46:56;;;;;;;0.45;0.40;;;22.70;61.40;;;;;;5086826;28;20692;-18
2022/06/11 05:49:27;;;;;;;0.32;0.20;;;22.70;61.50;;;;;;5075012;28;20106;-19
2022/06/11 05:51:58;;;;;;;0.55;0.25;;;22.70;61.40;;;;;;5042415;28;20052;-18
2022/06/11 05:54:25;;;;;;;0.25;0.25;;;22.70;61.50;;;;;;5093695;28;20135;-18
2022/06/11 05:56:51;;;;;;;0.57;0.30;;;22.70;61.50;;;;;;5097322;28;20066;-18
2022/06/11 05:59:25;;;;;;;0.40;0.40;;;22.70;61.40;;;;;;5079865;28;20036;-20
2022/06/11 06:01:50;;;;;;;;;;;22.70;61.20;;;;;;5063852;28;20514;-18
2022/06/11 06:04:16;;;;;;;0.20;0.20;;;22.70;61.50;;;;;;5066755;28;20098;-21
2022/06/11 06:06:42;;;;;;;0.50;0.50;;;22.70;61.50;;;;;;4716727;28;9999860;-22
2022/06/11 06:09:07;;;;;;;0.32;0.30;;;22.70;61.50;;;;;;5074707;28;20110;-18
2022/06/11 06:11:33;;;;;;;0.30;0.30;;;22.70;61.60;;;;;;5074742;28;20052;-19
2022/06/11 06:13:59;;;;;;;0.80;0.20;;;22.70;61.50;;;;;;5072959;28;20060;-18
2022/06/11 06:16:26;;;;;;;0.40;0.30;;;22.70;61.50;;;;;;5075349;28;20051;-19
2022/06/11 06:18:52;;;;;;;0.50;0.40;;;22.70;61.20;;;;;;5076093;28;20099;-18
2022/06/11 06:21:20;;;;;;;0.40;0.40;;;22.70;61.40;;;;;;5071820;28;20103;-19
2022/06/11 06:23:45;;;;;;;0.20;0.20;;;22.70;61.10;;;;;;5059122;28;20868;-20
2022/06/11 06:26:11;;;;;;;0.75;0.40;;;22.70;61.30;;;;;;5078918;28;20763;-18
2022/06/11 06:28:36;;;;;;;0.30;0.30;;;22.70;61.40;;;;;;5078879;28;20497;-20
2022/06/11 06:31:03;;;;;;;0.50;0.28;;;22.80;61.40;;;;;;5081240;28;20051;-20
2022/06/11 06:33:30;;;;;;;0.30;0.30;;;22.80;61.70;;;;;;5071619;28;20075;-20
2022/06/11 06:35:56;;;;;;;2.08;0.38;;;22.80;61.50;;;;;;5075734;28;20159;-20
2022/06/11 06:38:22;;;;;;;0.28;0.25;;;22.70;61.90;;;;;;5071904;28;20151;-18
2022/06/11 06:40:48;;;;;;;0.40;0.40;;;22.70;61.90;;;;;;5051811;28;20144;-19
2022/06/11 06:43:13;;;;;;;0.38;0.38;;;22.70;61.70;;;;;;5073650;28;20405;-20
2022/06/11 06:45:39;;;;;;;1.90;0.30;;;22.80;61.90;;;;;;5073363;28;20086;-18
2022/06/11 06:48:05;;;;;;;0.50;0.38;;;22.70;61.60;;;;;;5075281;28;20496;-20
2022/06/11 06:50:30;;;;;;;0.40;0.30;;;22.70;61.50;;;;;;5081972;28;20082;-19
2022/06/11 06:52:56;;;;;;;0.20;0.10;;;22.70;62.10;;;;;;5054168;28;20182;-19
2022/06/11 06:55:22;;;;;;;0.40;0.35;;;22.70;62.10;;;;;;5075431;28;20127;-18
2022/06/11 06:57:49;;;;;;;0.40;0.30;;;22.80;62.00;;;;;;5066292;28;20044;-19
2022/06/11 07:00:17;;;;;;;0.35;0.20;;;22.80;61.80;;;;;;5073695;28;20037;-19
2022/06/11 07:02:43;;;;;;;0.20;0.20;;;22.80;61.60;;;;;;5079246;28;20601;-18
2022/06/11 07:05:09;;;;;;;0.32;0.30;;;22.80;61.70;;;;;;5085134;28;20090;-19
2022/06/11 07:07:35;;;;;;;0.40;0.20;;;22.80;61.90;;;;;;5083828;28;20098;-20
2022/06/11 07:10:01;;;;;;;0.43;0.43;;;22.80;61.90;;;;;;5076968;28;20095;-19
2022/06/11 07:12:26;;;;;;;0.30;0.30;;;22.80;61.80;;;;;;5085630;28;20044;-19
2022/06/11 07:14:52;;;;;;;0.60;0.40;;;22.80;61.90;;;;;;5082466;28;20070;-18
2022/06/11 07:17:17;;;;;;;0.28;0.28;;;22.80;62.10;;;;;;5086595;28;20040;-18
2022/06/11 07:19:48;;;;;;;0.35;0.35;;;22.80;62.80;;;;;;5060050;28;20466;-18
2022/06/11 07:22:34;;;;;;;0.70;0.30;;;22.90;61.90;;;;;;5049980;28;20036;-19
2022/06/11 07:25:00;;;;;;;0.60;0.30;;;22.90;61.90;;;;;;4716739;28;10000067;-19
2022/06/11 07:27:27;;;;;;;0.88;0.35;;;22.90;62.00;;;;;;5039439;28;20409;-19
2022/06/11 07:29:56;;;;;;;0.40;0.40;;;22.90;62.00;;;;;;5050598;28;20423;-18
2022/06/11 07:32:22;;;;;;;0.77;0.73;;;22.90;61.90;;;;;;5042812;28;20109;-19
2022/06/11 07:34:48;;;;;;;0.40;0.40;;;22.90;61.70;;;;;;5079838;28;20162;-19
2022/06/11 07:37:13;;;;;;;0.50;0.43;;;22.90;61.90;;;;;;5075982;28;20048;-18
2022/06/11 07:39:39;;;;;;;0.20;0.20;;;22.90;61.80;;;;;;5059303;28;20048;-19
2022/06/11 07:42:05;;;;;;;0.28;0.20;;;22.90;61.90;;;;;;5069480;28;20144;-19
2022/06/11 07:44:31;;;;;;;0.30;0.30;;;22.80;61.90;;;;;;5072868;28;20041;-20
2022/06/11 07:46:56;;;;;;;0.15;0.15;;;22.80;62.10;;;;;;5070026;28;20044;-18
2022/06/11 07:49:22;;;;;;;0.45;0.22;;;22.80;62.10;;;;;;5074313;28;20047;-19
2022/06/11 07:51:48;;;;;;;0.52;0.30;;;22.80;62.10;;;;;;5075190;28;20040;-19
2022/06/11 07:54:13;;;;;;;0.20;0.20;;;22.80;61.80;;;;;;5068952;28;20562;-18
2022/06/11 07:56:39;;;;;;;0.20;0.20;;;22.90;61.50;;;;;;5078767;28;20130;-18
2022/06/11 07:59:05;;;;;;;0.57;0.47;;;22.90;61.50;;;;;;5082916;28;20131;-19
2022/06/11 08:01:31;;;;;;;0.40;0.30;;;22.90;61.90;;;;;;5075841;28;20147;-18
2022/06/11 08:03:57;;;;;;;0.65;0.30;;;22.90;61.30;;;;;;5069649;28;20148;-18
2022/06/11 08:06:23;;;;;;;0.40;0.25;;;22.90;61.20;;;;;;5070440;28;20094;-18
2022/06/11 08:08:50;;;;;;;0.22;0.20;;;22.90;61.30;;;;;;5078309;28;20050;-20
2022/06/11 08:11:15;;;;;;;1.38;0.50;;;22.90;61.40;;;;;;5075454;28;20223;-19
2022/06/11 08:13:41;;;;;;;0.20;0.20;;;22.90;61.30;;;;;;5073166;28;20123;-19
2022/06/11 08:16:07;;;;;;;0.30;0.20;;;23.00;61.10;;;;;;5080905;28;20052;-19
2022/06/11 08:18:32;;;;;;;0.20;0.20;;;23.00;61.00;;;;;;5075035;28;20044;-20
2022/06/11 08:20:58;;;;;;;0.40;0.30;;;23.00;61.00;;;;;;5074607;28;20537;-19
2022/06/11 08:23:24;;;;;;;0.22;0.22;;;23.00;60.90;;;;;;5073866;28;20457;-19
2022/06/11 08:25:50;;;;;;;0.13;0.13;;;23.00;61.20;;;;;;5074121;28;20126;-21
2022/06/11 08:28:17;;;;;;;0.50;0.40;;;23.10;60.90;;;;;;5084024;28;20036;-21
2022/06/11 08:30:43;;;;;;;0.10;0.10;;;23.10;61.20;;;;;;5078420;28;20126;-18
2022/06/11 08:33:08;;;;;;;0.35;0.32;;;23.20;60.70;;;;;;5078801;28;20048;-18
2022/06/11 08:35:34;;;;;;;1.45;0.20;;;23.20;60.80;;;;;;5083442;28;20075;-19
2022/06/11 08:38:01;;;;;;;0.40;0.30;;;23.20;60.60;;;;;;5069729;28;20089;-18
2022/06/11 08:40:36;;;;;;;0.35;0.20;;;23.20;60.80;;;;;;5070116;28;20258;-22
2022/06/11 08:43:28;;;;;;;0.30;0.30;;;23.30;60.90;;;;;;5039071;28;20049;-21
2022/06/11 08:46:02;;;;;;;0.30;0.20;;;23.30;60.60;;;;;;5045817;28;20048;-20
2022/06/11 08:48:49;;;;;;;0.25;0.20;;;23.30;60.50;;;;;;5027703;28;20052;-20
2022/06/11 08:51:28;;;;;;;0.30;0.13;;;23.30;60.60;;;;;;5043549;28;20111;-20
2022/06/11 08:53:56;;;;;;;0.25;0.25;;;23.40;60.60;;;;;;5036211;28;20072;-20
2022/06/11 08:56:35;;;;;;;0.20;0.20;;;23.40;60.40;;;;;;5039035;28;20583;-20
2022/06/11 08:59:03;;;;;;;1.00;0.40;;;23.40;60.60;;;;;;5020480;28;20612;-20
2022/06/11 09:01:34;;;;;;;0.20;0.17;;;23.40;60.40;;;;;;5054837;28;20048;-22
2022/06/11 09:04:26;;;;;;;0.20;0.20;;;23.40;60.40;;;;;;5036334;28;20446;-20
2022/06/11 09:07:04;;;;;;;0.30;0.30;;;23.40;60.40;;;;;;5038345;28;20059;-19
2022/06/11 09:09:50;;;;;;;0.52;0.13;;;23.40;60.80;;;;;;5057141;28;20056;-23
2022/06/11 09:12:15;;;;;;;0.17;0.15;;;23.40;60.70;;;;;;5053369;28;20256;-21
2022/06/11 09:14:51;;;;;;;0.35;0.35;;;23.40;60.60;;;;;;5053794;28;20048;-21
2022/06/11 09:17:29;;;;;;;0.30;0.30;;;23.50;60.50;;;;;;5049468;28;20062;-22
2022/06/11 09:20:52;;;;;;;0.20;0.20;;;23.50;60.40;;;;;;5054746;28;20049;-20
2022/06/11 09:23:36;;;;;;;0.70;0.40;;;23.40;60.40;;;;;;4956544;28;20063;-30
2022/06/11 09:26:14;;;;;;;;;;;23.30;61.10;;;;;;5041598;28;20145;-23
2022/06/11 09:28:42;;;;;;;0.20;0.20;;;23.30;61.00;;;;;;5079046;28;19926;-21
2022/06/11 09:31:43;;;;;;;0.28;0.22;;;23.30;61.20;;;;;;5027614;28;20752;-23
2022/06/11 09:34:09;;;;;;;0.40;0.30;;;23.30;60.70;;;;;;5052406;28;20049;-19
2022/06/11 09:37:06;;;;;;;0.30;0.30;;;23.40;60.70;;;;;;5044993;28;20053;-20
2022/06/11 09:39:40;;;;;;;0.20;0.20;;;23.40;60.40;;;;;;5044069;28;20049;-20
2022/06/11 09:42:15;;;;;;;0.20;0.20;;;23.50;60.30;;;;;;5038817;28;20041;-21
2022/06/11 09:44:54;;;;;;;0.30;0.30;;;23.60;60.10;;;;;;5046009;28;20641;-20
2022/06/11 09:47:37;;;;;;;0.35;0.20;;;23.60;59.90;;;;;;5037849;28;20542;-21
2022/06/11 09:50:21;;;;;;;0.30;0.30;;;23.70;59.80;;;;;;5069128;28;20081;-21
2022/06/11 09:53:28;;;;;;;0.82;0.40;;;23.70;59.70;;;;;;5046857;28;20045;-22
2022/06/11 09:56:07;;;;;;;0.35;0.20;;;23.80;59.70;;;;;;4954946;28;20046;-22
2022/06/11 09:59:11;;;;;;;0.50;0.30;;;23.80;59.80;;;;;;5024682;28;20604;-24
2022/06/11 10:01:44;;;;;;;0.40;0.25;;;23.80;59.70;;;;;;5038705;28;20060;-23
2022/06/11 10:04:11;;;;;;;0.82;0.40;;;23.80;59.70;;;;;;5026109;28;20040;-25
2022/06/11 10:06:59;;;;;;;0.30;0.30;;;23.80;59.60;;;;;;5043769;28;20493;-25
2022/06/11 10:09:29;;;;;;;0.40;0.40;;;23.70;59.70;;;;;;5051375;28;20608;-26
2022/06/11 10:11:59;;;;;;;0.20;0.20;;;23.80;59.90;;;;;;5022852;28;20115;-26
2022/06/11 10:14:58;;;;;;;0.52;0.20;;;23.70;59.70;;;;;;5041385;28;20551;-23
2022/06/11 10:17:43;;;;;;;0.40;0.40;;;23.80;59.70;;;;;;5031124;28;20053;-23
2022/06/11 10:20:35;;;;;;;0.20;0.20;;;23.80;59.80;;;;;;5040503;28;20087;-26
2022/06/11 10:23:34;;;;;;;0.75;0.30;;;23.90;59.60;;;;;;5044663;28;20146;-23
2022/06/11 10:26:09;;;;;;;0.40;0.40;;;23.90;59.50;;;;;;5045745;28;20132;-25
2022/06/11 10:28:41;;;;;;;0.40;0.30;;;23.90;59.40;;;;;;5057306;28;20098;-24
2022/06/11 10:31:10;;;;;;;0.30;0.20;;;23.90;59.40;;;;;;5025490;28;20053;-22
2022/06/11 10:33:41;;;;;;;0.38;0.30;;;23.90;59.40;;;;;;5031330;28;20052;-26
2022/06/11 10:36:18;;;;;;;0.55;0.25;;;23.90;59.40;;;;;;5042076;28;20041;-25
2022/06/11 10:38:57;;;;;;;0.22;0.15;;;23.90;59.40;;;;;;5048691;28;20178;-22
2022/06/11 10:41:41;;;;;;;0.35;0.30;;;23.90;59.50;;;;;;5038726;28;20048;-22
2022/06/11 10:44:15;;;;;;;0.30;0.30;;;23.90;59.50;;;;;;5029026;28;20470;-26
2022/06/11 10:46:41;;;;;;;0.25;0.17;;;24.00;59.50;;;;;;5059313;28;20106;-24
2022/06/11 10:49:17;;;;;;;0.35;0.25;;;24.00;59.30;;;;;;5059317;28;20051;-24
2022/06/11 10:51:50;;;;;;;0.32;0.30;;;24.10;59.20;;;;;;5041306;28;20051;-23
2022/06/11 10:54:20;;;;;;;0.25;0.22;;;24.10;59.10;;;;;;5058866;28;20061;-23
2022/06/11 10:56:51;;;;;;;0.40;0.40;;;24.20;59.00;;;;;;5037319;28;20049;-22
2022/06/11 10:59:32;;;;;;;0.30;0.25;;;24.20;58.90;;;;;;5017727;28;20355;-27
2022/06/11 11:02:33;;;;;;;0.30;0.30;;;24.20;59.00;;;;;;5017405;28;20666;-22
2022/06/11 11:05:07;;;;;;;0.20;0.17;;;24.20;58.90;;;;;;5050192;28;20052;-23
2022/06/11 11:07:42;;;;;;;;;;;24.20;58.80;;;;;;5034681;28;20049;-25
2022/06/11 11:10:18;;;;;;;;;;;24.10;58.80;;;;;;5048104;28;21184;-22
2022/06/11 11:12:43;;;;;;;0.38;0.20;;;24.20;58.90;;;;;;5054323;28;20403;-24
2022/06/11 11:15:09;;;;;;;0.30;0.30;;;24.10;58.90;;;;;;5056680;28;20144;-24
2022/06/11 11:17:35;;;;;;;0.65;0.30;;;24.10;59.20;;;;;;5059741;28;20505;-22
2022/06/11 11:20:35;;;;;;;0.40;0.15;;;24.20;59.10;;;;;;5020125;28;20049;-22
2022/06/11 11:23:23;;;;;;;0.82;0.50;;;24.20;58.90;;;;;;5018544;28;20056;-23
2022/06/11 11:25:52;;;;;;;0.20;0.20;;;24.20;59.10;;;;;;5025408;28;20531;-23
2022/06/11 11:28:43;;;;;;;1.20;0.40;;;24.20;59.40;;;;;;5037300;28;20057;-23
2022/06/11 11:31:18;;;;;;;0.40;0.20;;;24.20;59.40;;;;;;5015989;28;20142;-23
2022/06/11 11:33:56;;;;;;;0.45;0.30;;;24.20;59.20;;;;;;5045390;28;20568;-24
2022/06/11 11:36:23;;;;;;;0.38;0.17;;;24.30;59.30;;;;;;5035845;28;20479;-24
2022/06/11 11:39:19;;;;;;;0.30;0.20;;;24.30;59.20;;;;;;5054466;28;20209;-23
2022/06/11 11:42:07;;;;;;;0.88;0.32;;;24.30;59.20;;;;;;5045038;28;20067;-24
2022/06/11 11:44:49;;;;;;;0.30;0.30;;;24.30;59.20;;;;;;5048530;28;20048;-24
2022/06/11 11:47:39;;;;;;;0.20;0.20;;;24.30;59.30;;;;;;5034477;28;20049;-23
2022/06/11 11:50:13;;;;;;;0.40;0.17;;;24.30;59.30;;;;;;5023683;28;20052;-23
2022/06/11 11:52:44;;;;;;;1.58;0.20;;;24.20;59.30;;;;;;5049645;28;20520;-23
2022/06/11 11:55:25;;;;;;;0.63;0.25;;;24.30;59.10;;;;;;5032680;28;20044;-23
2022/06/11 11:58:05;;;;;;;0.40;0.30;;;24.30;59.30;;;;;;5055154;28;20624;-22
2022/06/11 12:00:54;;;;;;;0.40;0.30;;;24.30;59.20;;;;;;5034458;28;20129;-23
2022/06/11 12:03:28;;;;;;;0.35;0.30;;;24.30;59.00;;;;;;5016134;28;20067;-22
2022/06/11 12:05:55;;;;;;;0.40;0.30;;;24.30;59.00;;;;;;5015775;28;20973;-24
2022/06/11 12:08:48;;;;;;;0.40;0.40;;;24.30;59.60;;;;;;5037811;28;20053;-22
2022/06/11 12:11:34;;;;;;;0.25;0.20;;;24.40;58.90;;;;;;5040904;28;20036;-23
2022/06/11 12:14:01;;;;;;;0.10;0.10;;;24.40;59.00;;;;;;5038308;28;20056;-24
2022/06/11 12:16:29;;;;;;;0.30;0.30;;;24.30;59.10;;;;;;5054409;28;20059;-24
2022/06/11 12:19:18;;;;;;;0.30;0.30;;;24.30;59.20;;;;;;5054827;28;20682;-23
2022/06/11 12:21:44;;;;;;;0.20;0.20;;;24.30;59.00;;;;;;5042824;28;20059;-25
2022/06/11 12:24:13;;;;;;;0.20;0.20;;;24.30;59.10;;;;;;5035820;28;20630;-23
2022/06/11 12:26:47;;;;;;;0.15;0.10;;;24.40;59.10;;;;;;5034880;28;20060;-24
2022/06/11 12:29:34;;;;;;;0.22;0.20;;;24.40;58.90;;;;;;5025045;28;20528;-25
2022/06/11 12:32:06;;;;;;;0.40;0.40;;;24.30;59.10;;;;;;5044950;28;20049;-24
2022/06/11 12:34:31;;;;;;;0.20;0.20;;;24.40;59.10;;;;;;5035518;28;20133;-22
2022/06/11 12:37:15;;;;;;;0.30;0.20;;;24.40;58.80;;;;;;5043520;28;20052;-21
2022/06/11 12:39:44;;;;;;;0.55;0.30;;;24.40;59.00;;;;;;5046587;28;20056;-25
2022/06/11 12:42:24;;;;;;;0.30;0.30;;;24.40;58.90;;;;;;5043593;28;20069;-20
2022/06/11 12:44:56;;;;;;;0.20;0.10;;;24.40;58.90;;;;;;5053744;28;20746;-21
2022/06/11 12:47:41;;;;;;;0.20;0.20;;;24.50;58.80;;;;;;5044357;28;20127;-20
2022/06/11 12:50:25;;;;;;;0.32;0.20;;;24.50;58.90;;;;;;5058225;28;20517;-21
2022/06/11 12:53:01;;;;;;;0.17;0.17;;;24.50;58.80;;;;;;5035296;28;20049;-25
2022/06/11 12:55:49;;;;;;;0.20;0.20;;;24.50;59.00;;;;;;5037527;28;20052;-22
2022/06/11 12:58:33;;;;;;;0.20;0.20;;;24.50;58.80;;;;;;5020115;28;20044;-23
2022/06/11 13:01:18;;;;;;;0.20;0.20;;;24.50;58.80;;;;;;5051307;28;20531;-26
2022/06/11 13:04:20;;;;;;;0.10;0.10;;;24.50;58.80;;;;;;5055532;28;20534;-24
2022/06/11 13:07:02;;;;;;;0.28;0.22;;;24.50;58.80;;;;;;5065423;28;20044;-20
2022/06/11 13:10:09;;;;;;;0.40;0.25;;;24.50;58.80;;;;;;5064168;28;20387;-19
2022/06/11 13:12:34;;;;;;;0.30;0.10;;;24.60;58.70;;;;;;4953636;28;20061;-19
2022/06/11 13:15:15;;;;;;;0.10;0.10;;;24.60;58.70;;;;;;5010835;28;20049;-19